Latest Weather Observations for Kalumburu

IDW60801

Issued at 6:43 am WST Saturday 10 December 2022 (issued every 10 minutes, with the page automatically refreshed every 10 minutes)

About weather observations | Map of weather stations | Latest weather observations for WA | Other Formats
Station Details ID: 001019 Name: KALUMBURU Lat: -14.30 Lon: 126.65 Height: 23.0 m
Data from the previous 72 hours. | See also: Recent months at Kalumburu
Date/Time
WST
Temp
°C
App
Temp
°C
Dew
Point
°C
Rel
Hum
%
Delta-T
°C
Wind Press
QNH
hPa
Press
MSL
hPa
Rain since
9am
mm
Dir  Spd
km/h
Gust
km/h
Spd
kts
Gust
kts
10/06:30am 27.1 31.6 22.9 78 2.9 ESE 4 9 2 5 1008.3 1008.1 4.0
10/06:00am 26.8 30.5 23.9 84 2.0 S 11 19 6 10 1008.4 1008.2 4.0
10/05:30am 26.0 29.8 23.5 86 1.7 SSE 9 15 5 8 1008.3 1008.1 4.0
10/05:26am 25.6 29.1 23.5 88 1.4 S 11 15 6 8 1008.1 1007.9 4.0
10/05:16am 25.8 29.9 22.9 84 2.0 SSE 6 13 3 7 1007.6 1007.4 4.0
10/05:00am 28.0 31.7 23.2 75 3.3 ESE 9 15 5 8 1008.3 1008.1 0.0
10/04:30am 27.0 32.1 24.1 84 2.0 ENE 4 6 2 3 1006.9 1006.7 0.0
10/04:00am 26.5 32.0 23.4 83 2.1 CALM 0 0 0 0 1005.9 1005.7 0.0
10/03:30am 26.8 32.0 22.8 79 2.7 CALM 0 0 0 0 1005.6 1005.4 0.0
10/03:00am 27.1 32.7 23.6 81 2.4 CALM 0 0 0 0 1005.7 1005.5 0.0
10/02:30am 27.4 31.9 23.0 77 3.0 S 4 7 2 4 1005.5 1005.3 0.0
10/02:00am 27.9 32.7 23.5 77 3.0 SSE 4 7 2 4 1005.5 1005.3 0.0
10/01:30am 28.7 34.4 23.8 75 3.4 CALM 0 0 0 0 1005.4 1005.2 0.0
10/01:00am 29.5 33.8 23.7 71 4.0 SSW 7 13 4 7 1005.7 1005.5 0.0
10/12:30am 29.7 34.4 24.3 73 3.8 WNW 7 9 4 5 1005.9 1005.7 0.0
10/12:00am 30.0 35.4 23.9 70 4.2 SSW 2 7 1 4 1006.3 1006.1 0.0
 
Date/Time
WST
Temp
°C
App
Temp
°C
Dew
Point
°C
Rel
Hum
%
Delta-T
°C
Wind Press
QNH
hPa
Press
MSL
hPa
Rain since
9am
mm
Dir  Spd
km/h
Gust
km/h
Spd
kts
Gust
kts
09/11:30pm 30.2 34.8 24.1 70 4.2 W 7 13 4 7 1006.6 1006.4 0.0
09/11:00pm 30.3 34.5 23.5 67 4.7 SW 7 13 4 7 1006.8 1006.6 0.0
09/10:30pm 29.8 34.9 24.7 74 3.6 NW 6 9 3 5 1006.9 1006.7 0.0
09/10:00pm 29.8 34.6 24.2 72 3.9 NW 6 7 3 4 1006.8 1006.6 0.0
09/09:30pm 30.2 34.7 23.9 69 4.4 NW 7 11 4 6 1006.7 1006.5 0.0
09/09:00pm 30.4 34.1 23.3 66 4.9 NW 9 15 5 8 1006.5 1006.3 0.0
09/08:30pm 30.6 34.2 23.0 64 5.2 NW 9 13 5 7 1006.3 1006.1 0.0
09/08:00pm 30.9 34.0 22.2 59 5.9 NW 9 11 5 6 1006.3 1006.1 0.0
09/07:30pm 31.3 34.2 21.8 57 6.4 NW 9 11 5 6 1006.1 1005.9 0.0
09/07:00pm 31.6 33.6 20.8 52 7.2 NW 11 15 6 8 1005.8 1005.6 0.0
09/06:30pm 32.0 34.2 21.2 52 7.3 NW 11 17 6 9 1005.4 1005.2 0.0
09/06:00pm 32.5 34.8 20.7 49 7.9 NW 9 15 5 8 1004.9 1004.7 0.0
09/05:30pm 33.3 33.9 19.4 44 9.2 NW 15 24 8 13 1004.3 1004.1 0.0
09/05:00pm 34.4 35.1 19.6 41 9.8 WNW 15 24 8 13 1003.8 1003.6 0.0
09/04:30pm 35.2 37.0 21.8 45 9.2 NW 15 24 8 13 1003.5 1003.3 0.0
09/04:00pm 36.5 38.3 21.1 40 10.5 NW 13 20 7 11 1003.3 1003.1 0.0
09/03:30pm 36.8 38.6 21.8 42 10.3 NW 15 26 8 14 1003.1 1002.9 0.0
09/03:00pm 37.8 39.7 22.7 42 10.5 NW 17 26 9 14 1003.2 1003.0 0.0
09/02:30pm 38.5 39.8 21.6 37 11.6 NNW 17 28 9 15 1003.5 1003.3 0.0
09/02:00pm 37.3 37.5 21.4 39 10.9 N 22 32 12 17 1003.7 1003.5 0.0
09/01:30pm 38.6 40.6 22.2 39 11.3 NNW 15 20 8 11 1004.1 1003.9 0.0
09/01:00pm 37.8 39.5 22.3 41 10.7 N 17 26 9 14 1004.6 1004.4 0.0
09/12:30pm 38.3 40.5 24.3 45 9.9 N 20 30 11 16 1004.9 1004.7 0.0
09/12:00pm 38.2 39.4 20.0 34 12.3 NNW 13 22 7 12 1005.4 1005.2 0.0
09/11:30am 38.7 39.4 18.0 29 13.6 SW 11 15 6 8 1005.8 1005.6 0.0
09/11:00am 38.3 38.9 17.7 30 13.5 WSW 11 22 6 12 1006.3 1006.1 0.0
09/10:30am 37.8 39.2 18.7 32 12.6 SW 9 15 5 8 1007.0 1006.8 0.0
09/10:00am 36.8 39.0 19.7 36 11.4 NNW 7 13 4 7 1007.6 1007.4 0.0
09/09:30am 36.1 37.9 19.5 37 11.0 WSW 9 17 5 9 1007.9 1007.7 0.0
09/09:00am 35.2 37.9 22.2 47 8.9 S 11 20 6 11 1008.2 1008.0 0.0
09/08:30am 34.4 37.5 22.8 51 8.0 SSW 11 20 6 11 1008.2 1008.0 0.0
09/08:00am 33.0 37.1 23.9 59 6.4 SSW 9 17 5 9 1008.2 1008.0 0.0
09/07:30am 32.0 37.0 24.8 65 5.1 SW 7 11 4 6 1008.2 1008.0 0.0
09/07:00am 30.8 37.3 25.6 74 3.7 NW 2 6 1 3 1008.3 1008.1 0.0
09/06:30am 29.5 36.1 25.3 78 3.0 CALM 0 0 0 0 1008.1 1007.9 0.0
09/06:00am 27.8 34.8 25.8 89 1.4 CALM 0 0 0 0 1008.1 1007.9 0.0
09/05:30am 26.2 32.7 25.0 93 0.8 CALM 0 6 0 3 1008.1 1007.9 0.0
09/05:00am 25.6 31.7 24.4 93 0.8 CALM 0 0 0 0 1007.7 1007.5 0.0
09/04:30am 25.7 31.8 24.5 93 0.8 CALM 0 0 0 0 1007.3 1007.1 0.0
09/04:00am 25.8 32.0 24.6 93 0.8 CALM 0 0 0 0 1006.9 1006.7 0.0
09/03:30am 25.8 32.0 24.6 93 0.8 CALM 0 0 0 0 1006.7 1006.5 0.0
09/03:00am 25.9 32.0 24.5 92 1.0 CALM 0 0 0 0 1006.6 1006.4 0.0
09/02:30am 26.1 32.4 24.7 92 1.0 CALM 0 0 0 0 1006.3 1006.1 0.0
09/02:00am 26.1 32.4 24.7 92 1.0 CALM 0 0 0 0 1006.2 1006.0 0.0
09/01:30am 26.3 32.6 24.7 91 1.1 CALM 0 0 0 0 1006.4 1006.2 0.0
09/01:00am 26.7 32.8 24.5 88 1.5 CALM 0 0 0 0 1006.5 1006.3 0.0
09/12:30am 27.7 33.1 24.5 83 2.2 NW 4 7 2 4 1006.8 1006.6 0.0
09/12:00am 28.0 32.9 24.4 81 2.5 NW 6 7 3 4 1007.2 1007.0 0.0
 
Date/Time
WST
Temp
°C
App
Temp
°C
Dew
Point
°C
Rel
Hum
%
Delta-T
°C
Wind Press
QNH
hPa
Press
MSL
hPa
Rain since
9am
mm
Dir  Spd
km/h
Gust
km/h
Spd
kts
Gust
kts
08/11:30pm 28.2 33.7 24.6 81 2.5 WNW 4 7 2 4 1007.6 1007.4 0.0
08/11:00pm 28.4 33.5 24.6 80 2.7 WNW 6 7 3 4 1007.9 1007.7 0.0
08/10:30pm 28.7 33.7 24.5 78 2.9 NW 6 7 3 4 1008.2 1008.0 0.0
08/10:00pm 29.1 33.9 24.4 76 3.3 NNW 7 9 4 5 1008.1 1007.9 0.0
08/09:30pm 29.2 33.8 24.1 74 3.5 NW 7 11 4 6 1008.1 1007.9 0.0
08/09:00pm 29.5 32.9 22.0 64 5.1 NW 7 11 4 6 1007.8 1007.6 0.0
08/08:30pm 29.9 33.6 22.6 65 5.0 NNW 7 11 4 6 1007.8 1007.6 0.0
08/08:00pm 30.2 33.4 23.1 65 4.9 N 11 13 6 7 1007.5 1007.3 0.0
08/07:30pm 30.5 33.4 23.2 65 5.0 N 13 20 7 11 1007.4 1007.2 0.0
08/07:00pm 30.7 33.7 23.4 65 5.0 N 13 19 7 10 1007.1 1006.9 0.0
08/06:30pm 31.1 33.8 23.5 64 5.3 N 15 20 8 11 1006.7 1006.5 0.0
08/06:00pm 31.5 33.9 23.6 63 5.5 N 17 22 9 12 1006.1 1005.9 0.0
08/05:30pm 32.6 34.7 23.8 59 6.1 N 19 24 10 13 1005.7 1005.5 0.0
08/05:00pm 33.3 35.1 23.3 55 6.9 N 19 26 10 14 1005.1 1004.9 0.0
08/04:30pm 34.2 36.8 23.9 55 7.2 N 17 28 9 15 1004.8 1004.6 0.0
08/04:00pm 34.6 37.2 23.3 52 7.9 N 15 24 8 13 1004.6 1004.4 0.0
08/03:30pm 34.0 35.7 23.1 53 7.5 N 19 28 10 15 1004.7 1004.5 0.0
08/03:00pm 34.2 36.0 24.2 56 7.0 NNW 22 35 12 19 1004.9 1004.7 0.0
08/02:30pm 34.1 35.1 22.8 51 7.8 N 22 33 12 18 1005.0 1004.8 0.0
08/02:00pm 34.3 35.8 23.0 51 7.8 N 20 30 11 16 1005.2 1005.0 0.0
08/01:30pm 35.2 36.6 22.5 47 8.8 N 19 26 10 14 1005.5 1005.3 0.0
08/01:00pm 35.8 37.9 23.1 48 8.8 NW 17 24 9 13 1006.0 1005.8 0.0
08/12:30pm 35.0 36.9 22.7 49 8.5 NNW 17 22 9 12 1006.4 1006.2 0.0
08/12:00pm 35.1 37.0 22.8 49 8.5 NNW 17 26 9 14 1006.9 1006.7 0.0
08/11:30am 35.4 36.9 20.5 41 10.0 N 13 20 7 11 1007.2 1007.0 0.0
08/11:00am 35.1 37.8 21.4 45 9.3 NNW 9 20 5 11 1007.6 1007.4 0.0
08/10:30am 35.1 37.2 21.0 43 9.5 N 11 17 6 9 1007.9 1007.7 0.0
08/10:00am 34.6 38.3 22.6 49 8.3 NE 7 11 4 6 1008.3 1008.1 0.0
08/09:30am 33.7 37.2 22.8 53 7.5 NW 9 15 5 8 1008.7 1008.5 0.0
08/09:00am 32.8 37.3 24.0 60 6.2 NNE 7 13 4 7 1009.1 1008.9 0.2
08/08:30am 32.0 35.8 22.7 58 6.4 SW 7 11 4 6 1009.3 1009.1 0.2
08/08:00am 31.4 35.9 24.0 65 5.2 WNW 7 13 4 7 1009.5 1009.3 0.2
08/07:30am 30.9 36.2 25.3 72 4.0 SW 7 11 4 6 1009.6 1009.4 0.0
08/07:00am 29.3 34.5 25.1 78 3.0 WNW 7 11 4 6 1009.3 1009.1 0.0
08/06:30am 28.7 35.6 25.7 84 2.1 CALM 0 0 0 0 1009.4 1009.2 0.0
08/06:00am 26.8 32.9 25.0 90 1.3 SSE 2 7 1 4 1009.1 1008.9 0.0
08/05:30am 25.3 31.2 24.1 93 0.8 CALM 0 0 0 0 1008.7 1008.5 0.0
08/05:00am 24.8 30.4 23.6 93 0.8 CALM 0 0 0 0 1008.2 1008.0 0.0
08/04:30am 24.8 30.4 23.6 93 0.8 CALM 0 0 0 0 1007.5 1007.3 0.0
08/04:00am 25.0 30.7 23.8 93 0.8 CALM 0 0 0 0 1007.3 1007.1 0.0
08/03:30am 25.0 30.6 23.6 92 1.0 CALM 0 0 0 0 1006.9 1006.7 0.0
08/03:00am 25.2 30.8 23.6 91 1.1 CALM 0 0 0 0 1006.9 1006.7 0.0
08/02:30am 25.1 30.7 23.5 91 1.1 CALM 0 0 0 0 1006.8 1006.6 0.0
08/02:00am 25.2 30.7 23.4 90 1.2 CALM 0 0 0 0 1006.8 1006.6 0.0
08/01:30am 25.4 30.7 23.1 87 1.6 CALM 0 0 0 0 1006.7 1006.5 0.0
08/01:00am 25.5 31.2 23.7 90 1.2 CALM 0 0 0 0 1006.9 1006.7 0.0
08/12:30am 25.8 31.6 24.0 90 1.2 CALM 0 0 0 0 1007.0 1006.8 0.0
08/12:00am 26.0 31.8 23.9 88 1.4 CALM 0 0 0 0 1007.2 1007.0 0.0
 
Date/Time
WST
Temp
°C
App
Temp
°C
Dew
Point
°C
Rel
Hum
%
Delta-T
°C
Wind Press
QNH
hPa
Press
MSL
hPa
Rain since
9am
mm
Dir  Spd
km/h
Gust
km/h
Spd
kts
Gust
kts
07/11:30pm 26.2 32.1 24.1 88 1.4 CALM 0 0 0 0 1007.5 1007.3 0.0
07/11:00pm 26.3 32.1 24.0 87 1.6 CALM 0 0 0 0 1007.7 1007.5 0.0
07/10:30pm 25.7 31.0 23.0 85 1.8 CALM 0 0 0 0 1008.0 1007.8 0.0
07/10:00pm 26.2 31.0 22.1 78 2.8 CALM 0 0 0 0 1007.9 1007.7 0.0
07/09:30pm 26.6 30.3 22.2 77 3.0 ESE 6 7 3 4 1007.8 1007.6 0.0
07/09:00pm 27.7 31.8 22.9 75 3.3 SW 6 9 3 5 1007.5 1007.3 0.0
07/08:30pm 27.6 34.3 25.4 88 1.5 CALM 0 0 0 0 1007.5 1007.3 0.0
07/08:00pm 27.8 34.5 25.4 87 1.7 CALM 0 0 0 0 1007.5 1007.3 0.0
07/07:30pm 27.8 34.5 25.4 87 1.7 CALM 0 0 0 0 1007.1 1006.9 0.0
07/07:00pm 28.1 34.0 25.3 85 2.0 NE 4 6 2 3 1006.8 1006.6 0.0
07/06:30pm 28.8 35.3 25.0 80 2.7 CALM 0 4 0 2 1006.5 1006.3 0.0
07/06:00pm 29.9 35.0 25.0 75 3.5 N 7 11 4 6 1006.2 1006.0 0.0
07/05:30pm 30.2 35.1 25.3 75 3.5 NNW 9 15 5 8 1006.0 1005.8 0.0
07/05:00pm 30.5 34.9 25.6 75 3.5 NNW 13 20 7 11 1005.8 1005.6 0.0
07/04:30pm 29.3 34.8 24.6 76 3.3 ENE 4 7 2 4 1005.7 1005.5 0.0
07/04:00pm 29.2 33.5 23.6 72 3.9 NE 7 15 4 8 1005.4 1005.2 0.0
07/03:30pm 28.5 33.1 24.7 80 2.7 ENE 9 13 5 7 1005.3 1005.1 0.0
07/03:27pm 28.6 33.6 24.8 80 2.7 ENE 7 13 4 7 1005.2 1005.0 0.0
07/03:17pm 28.9 31.3 23.6 73 3.7 E 17 32 9 17 1005.3 1005.1 0.0
07/03:10pm 29.5 32.3 23.0 68 4.4 E 13 32 7 17 1005.6 1005.4 0.0
07/03:00pm 30.5 33.1 21.9 60 5.8 SE 11 24 6 13 1006.0 1005.8 0.0
07/02:35pm 32.9 36.2 23.2 56 6.7 NNW 11 22 6 12 1005.6 1005.4 0.0
07/02:30pm 32.9 36.0 23.5 57 6.5 NNW 13 22 7 12 1005.3 1005.1 0.0
07/02:00pm 34.0 36.5 23.1 53 7.6 NNW 15 26 8 14 1005.0 1004.8 0.0
07/01:30pm 34.7 37.4 23.4 52 7.9 NNW 15 20 8 11 1005.5 1005.3 0.0
07/01:00pm 34.5 37.4 24.4 55 7.1 NW 17 26 9 14 1006.1 1005.9 0.0
07/12:30pm 34.7 38.4 25.2 57 6.8 NW 15 20 8 11 1006.7 1006.5 0.0
07/12:00pm 33.7 37.4 25.1 60 6.1 NW 15 22 8 12 1007.1 1006.9 0.0
07/11:30am 32.9 36.6 24.6 61 5.8 NNW 13 19 7 10 1007.5 1007.3 0.0
07/11:00am 33.8 38.5 25.5 62 5.9 NW 11 17 6 9 1008.0 1007.8 0.0
07/10:30am 32.9 36.9 24.4 61 6.0 NNW 11 17 6 9 1008.3 1008.1 0.0
07/10:00am 33.1 38.0 24.6 61 6.0 NNW 7 15 4 8 1008.6 1008.4 0.0
07/09:30am 32.8 37.5 24.3 61 6.0 NNW 7 13 4 7 1008.8 1008.6 0.0
07/09:00am 32.6 37.9 24.9 64 5.4 N 6 11 3 6 1009.1 1008.9 14.4
07/08:30am 31.7 37.2 24.6 66 5.0 W 4 9 2 5 1009.1 1008.9 14.4
07/08:00am 30.7 36.9 24.6 70 4.3 CALM 0 0 0 0 1008.9 1008.7 14.2
07/07:30am 29.9 36.0 24.5 73 3.8 CALM 0 0 0 0 1008.8 1008.6 14.2
07/07:00am 30.0 36.1 24.4 72 3.9 CALM 0 0 0 0 1008.5 1008.3 14.2

Other formats

Comma delimited format used in spreadsheet applications
http://www.bom.gov.au/fwo/IDW60801/IDW60801.94100.axf

JavaScript Object Notation format (JSON) in row-major order
http://www.bom.gov.au/fwo/IDW60801/IDW60801.94100.json

Data quality

Most of these data are generated automatically and are frequently updated. Quality checks on data are not normally performed. It is possible for incorrect values to appear. Refer to information at About Latest Weather Observations and please check the disclaimer before using these data.